Time;durP1;ratioP1;P1;durP2;ratioP2;P2;SDS_P1;SDS_P2;PMS_P1;PMS_P2;Temp;Humidity;BMP_temperature;BMP_pressure;BME280_temperature;BME280_humidity;BME280_pressure;Samples;Min_cycle;Max_cycle;Signal;HPM_P1;HPM_P2
2021/12/13 00:00:16;;;;;;;53.57;30.13;;;11.10;79.50;;;;;;10159337;29;20219;-93
2021/12/13 00:05:36;;;;;;;51.73;28.03;;;11.10;79.70;;;;;;10184105;29;20237;-95
2021/12/13 00:10:53;;;;;;;54.17;29.73;;;11.10;79.40;;;;;;10203244;29;20288;-94
2021/12/13 00:15:59;;;;;;;47.20;28.67;;;11.10;79.20;;;;;;10215434;29;20243;-95
2021/12/13 00:21:08;;;;;;;48.67;29.07;;;11.10;79.60;;;;;;10182382;29;20606;-95
2021/12/13 00:26:20;;;;;;;97.77;52.60;;;11.00;79.90;;;;;;10156905;29;20244;-96
2021/12/13 00:31:41;;;;;;;59.60;30.20;;;10.90;76.60;;;;;;10136353;29;20218;-95
2021/12/13 00:36:49;;;;;;;53.67;29.77;;;10.90;80.30;;;;;;10160649;29;20732;-96
2021/12/13 00:41:54;;;;;;;84.30;45.27;;;10.90;80.00;;;;;;10172683;29;20233;-95
2021/12/13 00:46:59;;;;;;;43.67;26.37;;;11.00;77.90;;;;;;10238102;28;20263;-94
2021/12/13 00:52:04;;;;;;;52.00;29.40;;;11.30;79.30;;;;;;10215141;29;20688;-95
2021/12/13 00:57:07;;;;;;;44.30;26.83;;;11.40;78.60;;;;;;10174502;29;20270;-96
2021/12/13 01:02:25;;;;;;;47.83;27.60;;;11.40;78.70;;;;;;10152358;29;20211;-94
2021/12/13 01:07:33;;;;;;;47.63;28.43;;;11.50;78.40;;;;;;10153101;29;20239;-95
2021/12/13 01:12:37;;;;;;;47.40;26.47;;;11.50;77.60;;;;;;10204771;29;20253;-94
2021/12/13 01:18:19;;;;;;;44.37;28.40;;;11.40;78.30;;;;;;10197443;29;20219;-94
2021/12/13 01:23:39;;;;;;;48.00;27.37;;;11.50;77.70;;;;;;10152713;29;20212;-94
2021/12/13 01:28:45;;;;;;;45.97;26.17;;;11.80;76.80;;;;;;10174772;29;20213;-95
2021/12/13 01:33:51;;;;;;;50.40;27.33;;;11.70;77.40;;;;;;10218645;29;20214;-92
2021/12/13 01:39:13;;;;;;;48.40;27.50;;;11.60;78.00;;;;;;10152008;29;20576;-96
2021/12/13 01:44:23;;;;;;;50.43;27.97;;;11.30;78.60;;;;;;10141790;29;20257;-95
2021/12/13 01:49:29;;;;;;;47.63;26.67;;;11.20;78.60;;;;;;10159070;29;20963;-95
2021/12/13 01:54:39;;;;;;;58.67;31.87;;;11.00;79.50;;;;;;10153787;29;20260;-95
2021/12/13 01:59:53;;;;;;;46.93;26.23;;;11.20;78.50;;;;;;10109324;29;20336;-95
2021/12/13 02:04:59;;;;;;;58.30;31.57;;;11.00;79.40;;;;;;10143672;29;20262;-96
2021/12/13 02:10:11;;;;;;;45.87;26.30;;;11.10;78.90;;;;;;10186181;29;20213;-95
2021/12/13 02:20:41;;;;;;;80.60;43.37;;;11.10;79.50;;;;;;10207325;29;20210;-95
2021/12/13 02:25:48;;;;;;;67.53;35.90;;;11.10;78.30;;;;;;10205222;29;20239;-96
2021/12/13 02:30:54;;;;;;;42.37;25.93;;;11.10;79.00;;;;;;10204851;29;20211;-96
2021/12/13 02:36:01;;;;;;;52.40;30.77;;;11.10;79.40;;;;;;10188376;29;20213;-96
2021/12/13 02:41:06;;;;;;;46.73;28.10;;;11.00;78.50;;;;;;10176842;29;20241;-96
2021/12/13 02:46:09;;;;;;;65.33;35.47;;;10.90;79.60;;;;;;10164322;29;20245;-96
2021/12/13 02:51:26;;;;;;;67.13;36.40;;;10.70;79.60;;;;;;10162443;29;20241;-93
2021/12/13 02:56:34;;;;;;;49.33;27.53;;;10.80;79.40;;;;;;10147420;29;20293;-93
2021/12/13 03:01:44;;;;;;;51.93;30.03;;;10.80;80.50;;;;;;10161292;29;20219;-94
2021/12/13 03:06:57;;;;;;;61.60;32.80;;;10.80;80.10;;;;;;10199804;29;20245;-95
2021/12/13 03:12:01;;;;;;;47.30;27.10;;;10.70;79.90;;;;;;10199814;29;20264;-95
2021/12/13 03:17:09;;;;;;;49.27;27.90;;;10.70;81.00;;;;;;10179388;29;20258;-95
2021/12/13 03:22:40;;;;;;;46.27;25.80;;;10.60;81.20;;;;;;10160127;29;20220;-95
2021/12/13 03:28:18;;;;;;;45.53;25.90;;;10.60;81.70;;;;;;10145560;29;20242;-95
2021/12/13 03:33:40;;;;;;;56.23;29.57;;;10.60;81.50;;;;;;10003821;29;20216;-95
2021/12/13 03:38:48;;;;;;;42.60;25.37;;;10.60;81.50;;;;;;10018140;29;20684;-95
2021/12/13 03:44:00;;;;;;;46.53;27.23;;;10.70;81.70;;;;;;10018325;29;20213;-95
2021/12/13 03:49:05;;;;;;;40.73;26.40;;;10.50;81.70;;;;;;10017388;29;20741;-94
2021/12/13 03:54:11;;;;;;;59.83;34.47;;;10.40;82.40;;;;;;10037879;29;20232;-91
2021/12/13 03:59:19;;;;;;;44.03;24.67;;;10.40;82.00;;;;;;10022756;29;20260;-94
2021/12/13 04:04:33;;;;;;;39.43;24.77;;;10.40;82.60;;;;;;9993430;29;20219;-94
2021/12/13 04:09:36;;;;;;;43.93;25.03;;;10.40;82.60;;;;;;10121947;29;20681;-94
2021/12/13 04:14:43;;;;;;;42.83;25.70;;;10.40;82.50;;;;;;10188365;29;20204;-93
2021/12/13 04:19:50;;;;;;;65.93;34.10;;;10.50;82.40;;;;;;10158534;29;20213;-95
2021/12/13 04:25:00;;;;;;;53.57;29.67;;;10.30;81.80;;;;;;10175825;29;20228;-94
2021/12/13 04:30:27;;;;;;;46.43;27.23;;;10.30;82.80;;;;;;10180674;29;20268;-96
2021/12/13 04:35:30;;;;;;;43.10;26.43;;;10.40;82.90;;;;;;10127350;29;20239;-95
2021/12/13 04:40:38;;;;;;;49.93;24.17;;;10.40;82.80;;;;;;10161552;29;20665;-95
2021/12/13 04:45:48;;;;;;;46.57;25.60;;;10.40;82.80;;;;;;10180746;29;20281;-95
2021/12/13 04:51:14;;;;;;;50.13;27.60;;;10.30;82.70;;;;;;10199544;29;20237;-94
2021/12/13 04:56:23;;;;;;;42.57;24.90;;;10.20;83.10;;;;;;10225408;29;20197;-95
2021/12/13 05:01:26;;;;;;;42.40;26.80;;;10.10;83.90;;;;;;10168946;29;20242;-95
2021/12/13 05:06:36;;;;;;;39.10;23.63;;;10.30;83.40;;;;;;10122677;29;20238;-95
2021/12/13 05:11:43;;;;;;;40.03;24.37;;;10.30;83.30;;;;;;10167320;29;20206;-95
2021/12/13 05:16:53;;;;;;;44.50;25.80;;;10.40;83.10;;;;;;10200882;29;20264;-95
2021/12/13 05:21:57;;;;;;;39.40;22.27;;;10.30;83.20;;;;;;10198915;29;20217;-95
2021/12/13 05:27:08;;;;;;;38.77;23.37;;;10.40;83.20;;;;;;10198703;29;20256;-95
2021/12/13 05:32:13;;;;;;;37.43;23.50;;;10.40;83.20;;;;;;10181302;29;20265;-94
2021/12/13 05:37:16;;;;;;;40.47;24.53;;;10.30;83.30;;;;;;10143282;29;20292;-95
2021/12/13 05:42:19;;;;;;;38.87;23.87;;;10.30;83.30;;;;;;10159833;29;20210;-95
2021/12/13 05:47:24;;;;;;;44.90;26.90;;;10.40;83.40;;;;;;10143129;29;20242;-94
2021/12/13 05:52:34;;;;;;;41.67;24.10;;;10.40;83.10;;;;;;10158569;29;20233;-93
2021/12/13 05:57:44;;;;;;;40.50;24.60;;;10.30;83.20;;;;;;10161757;29;20215;-95
2021/12/13 06:03:13;;;;;;;50.37;27.33;;;10.40;83.00;;;;;;10174925;29;20208;-95
2021/12/13 06:08:27;;;;;;;54.73;28.17;;;10.50;83.00;;;;;;10193155;29;20237;-92
2021/12/13 06:13:42;;;;;;;47.87;25.60;;;10.40;83.00;;;;;;10176596;29;20211;-89
2021/12/13 06:19:04;;;;;;;43.73;23.73;;;10.50;83.10;;;;;;10197274;29;20211;-89
2021/12/13 06:24:09;;;;;;;50.07;27.67;;;10.60;82.70;;;;;;10162771;29;20208;-96
2021/12/13 06:29:11;;;;;;;42.23;25.80;;;10.70;82.40;;;;;;10162681;29;20254;-94
2021/12/13 06:34:16;;;;;;;42.47;25.27;;;10.40;83.20;;;;;;10164047;29;20204;-93
2021/12/13 06:39:28;;;;;;;56.93;28.57;;;10.40;82.90;;;;;;10202946;29;20883;-93
2021/12/13 06:44:45;;;;;;;50.90;28.27;;;10.50;82.60;;;;;;10172311;29;20265;-93
2021/12/13 06:49:59;;;;;;;48.90;28.17;;;10.60;82.60;;;;;;10162737;29;20208;-94
2021/12/13 06:55:08;;;;;;;41.30;26.57;;;10.40;83.00;;;;;;10150954;29;20243;-94
2021/12/13 07:00:28;;;;;;;59.70;31.97;;;10.30;83.50;;;;;;10140635;29;20598;-94
2021/12/13 07:06:00;;;;;;;66.43;36.20;;;10.20;83.40;;;;;;10159138;29;20238;-94
2021/12/13 07:11:12;;;;;;;50.00;26.73;;;9.90;84.30;;;;;;10142868;29;20243;-95
2021/12/13 07:16:30;;;;;;;51.23;27.60;;;10.00;85.30;;;;;;10176977;29;20233;-95
2021/12/13 07:21:41;;;;;;;54.13;30.70;;;10.20;84.50;;;;;;10146725;29;20218;-95
2021/12/13 07:26:52;;;;;;;53.37;28.30;;;10.20;83.80;;;;;;10158339;29;20321;-95
2021/12/13 07:32:16;;;;;;;48.87;25.93;;;10.40;83.70;;;;;;10158406;29;20219;-95
2021/12/13 07:37:35;;;;;;;46.03;26.33;;;10.60;83.10;;;;;;10134593;29;20210;-94
2021/12/13 07:42:38;;;;;;;43.57;26.47;;;10.70;82.50;;;;;;10144259;29;20214;-94
2021/12/13 07:47:42;;;;;;;45.57;26.23;;;10.60;82.80;;;;;;10161156;29;20286;-95
2021/12/13 07:52:53;;;;;;;51.83;27.70;;;10.70;83.30;;;;;;10154772;29;20268;-93
2021/12/13 07:58:04;;;;;;;45.63;25.67;;;10.70;82.40;;;;;;10144476;29;20215;-94
2021/12/13 08:03:10;;;;;;;47.03;24.63;;;11.10;81.60;;;;;;10157529;29;20218;-94
2021/12/13 08:08:23;;;;;;;44.13;24.90;;;11.60;79.90;;;;;;10139476;29;20305;-96
2021/12/13 08:13:31;;;;;;;60.77;34.00;;;11.80;78.60;;;;;;10127338;29;20211;-95
2021/12/13 08:18:43;;;;;;;44.87;25.53;;;11.80;78.00;;;;;;10157921;29;20208;-94
2021/12/13 08:23:56;;;;;;;51.77;30.27;;;11.30;79.20;;;;;;10125976;29;20219;-95
2021/12/13 08:29:02;;;;;;;47.87;28.37;;;11.00;80.70;;;;;;10125258;29;20298;-93
2021/12/13 08:34:09;;;;;;;49.27;28.73;;;10.90;81.40;;;;;;10164696;29;20745;-96
2021/12/13 08:39:22;;;;;;;65.80;35.50;;;10.70;82.00;;;;;;10191498;29;20226;-94
2021/12/13 08:44:34;;;;;;;56.67;31.00;;;10.60;82.10;;;;;;10197055;29;20214;-94
2021/12/13 08:49:45;;;;;;;55.67;30.67;;;10.40;82.90;;;;;;10205275;29;20694;-94
2021/12/13 08:55:15;;;;;;;78.10;39.73;;;10.50;82.80;;;;;;10076484;29;20290;-95
2021/12/13 09:00:27;;;;;;;53.53;28.40;;;10.50;82.10;;;;;;10093181;29;20220;-95
2021/12/13 09:05:35;;;;;;;50.33;27.53;;;10.50;83.10;;;;;;10085674;29;20224;-93
2021/12/13 09:10:49;;;;;;;54.73;27.87;;;10.70;83.00;;;;;;10054439;29;20413;-92
2021/12/13 09:15:57;;;;;;;52.07;28.63;;;10.50;83.00;;;;;;10052113;29;20235;-94
2021/12/13 09:21:02;;;;;;;58.93;29.60;;;10.50;82.90;;;;;;10042422;29;20280;-94
2021/12/13 09:26:14;;;;;;;70.00;33.40;;;10.60;82.80;;;;;;10076851;29;20718;-95
2021/12/13 09:31:23;;;;;;;50.93;26.57;;;10.70;82.20;;;;;;10164019;29;20209;-95
2021/12/13 09:36:33;;;;;;;49.00;27.33;;;10.80;82.30;;;;;;10196451;29;20246;-96
2021/12/13 09:41:45;;;;;;;50.03;28.77;;;10.80;82.10;;;;;;10209222;29;20203;-95
2021/12/13 09:47:03;;;;;;;50.67;26.97;;;10.80;82.20;;;;;;10156770;29;20744;-95
2021/12/13 09:52:23;;;;;;;52.43;29.73;;;10.90;81.90;;;;;;10155928;29;20246;-96
2021/12/13 09:57:34;;;;;;;54.40;30.40;;;10.90;81.80;;;;;;10165949;29;20215;-95
2021/12/13 10:02:41;;;;;;;73.10;35.60;;;10.90;81.30;;;;;;10181989;29;20214;-92
2021/12/13 10:07:52;;;;;;;56.77;30.93;;;10.90;81.60;;;;;;10175618;29;20266;-93
2021/12/13 10:13:02;;;;;;;63.93;33.27;;;10.80;81.90;;;;;;10179041;29;20199;-94
2021/12/13 10:18:12;;;;;;;62.37;32.37;;;10.70;81.80;;;;;;10162633;29;20259;-95
2021/12/13 10:23:21;;;;;;;66.00;32.80;;;10.40;82.80;;;;;;10148807;29;20209;-95
2021/12/13 10:28:30;;;;;;;103.10;45.47;;;10.40;83.30;;;;;;10169882;29;20231;-94
2021/12/13 10:33:35;;;;;;;68.57;35.27;;;10.40;82.70;;;;;;10170388;29;20617;-95
2021/12/13 10:38:49;;;;;;;60.20;31.57;;;10.00;84.40;;;;;;10166720;29;20215;-95
2021/12/13 10:44:02;;;;;;;77.37;39.23;;;9.90;85.40;;;;;;10129279;29;20242;-95
2021/12/13 10:49:17;;;;;;;58.93;32.43;;;9.70;85.50;;;;;;10163406;29;20225;-94
2021/12/13 10:54:30;;;;;;;53.17;29.23;;;9.80;86.00;;;;;;10142075;29;20305;-94
2021/12/13 10:59:34;;;;;;;57.57;31.17;;;9.90;86.30;;;;;;10147922;29;20267;-91
2021/12/13 11:04:42;;;;;;;62.23;33.17;;;10.00;85.80;;;;;;10184234;29;20738;-93
2021/12/13 11:09:47;;;;;;;55.20;31.03;;;10.00;85.50;;;;;;10098107;29;20246;-92
2021/12/13 11:14:54;;;;;;;56.80;30.47;;;10.10;85.50;;;;;;10067073;29;20247;-93
2021/12/13 11:20:04;;;;;;;52.47;28.87;;;10.20;85.40;;;;;;10058287;29;20582;-94
2021/12/13 11:25:54;;;;;;;83.33;39.97;;;10.20;85.10;;;;;;10051847;29;20215;-90
2021/12/13 11:31:01;;;;;;;53.90;30.67;;;10.20;84.90;;;;;;10020165;29;20212;-94
2021/12/13 11:36:06;;;;;;;59.20;30.37;;;10.20;84.90;;;;;;9985556;29;20205;-94
2021/12/13 11:48:33;;;;;;;55.13;30.07;;;10.40;84.60;;;;;;10062701;29;20223;-94
2021/12/13 11:53:41;;;;;;;60.97;31.70;;;10.40;84.60;;;;;;10076487;29;20226;-95
2021/12/13 11:59:22;;;;;;;54.63;30.83;;;10.40;84.20;;;;;;10065769;29;20224;-94
2021/12/13 12:05:05;;;;;;;53.57;29.73;;;10.30;84.50;;;;;;10077853;29;20210;-93
2021/12/13 12:10:35;;;;;;;69.83;34.53;;;10.20;84.90;;;;;;10185791;29;20232;-94
2021/12/13 12:15:41;;;;;;;60.00;30.60;;;10.20;85.10;;;;;;10147479;29;20252;-94
2021/12/13 12:20:50;;;;;;;47.43;26.00;;;10.40;84.60;;;;;;10145608;29;20213;-93
2021/12/13 12:26:00;;;;;;;76.90;37.47;;;10.70;84.30;;;;;;10145118;29;20285;-94
2021/12/13 12:31:03;;;;;;;49.20;27.07;;;10.70;83.10;;;;;;10146588;29;20212;-96
2021/12/13 12:36:22;;;;;;;53.33;30.03;;;10.80;83.40;;;;;;10147800;29;20226;-95
2021/12/13 12:42:29;;;;;;;56.93;32.47;;;10.70;83.30;;;;;;10182652;29;20221;-94
2021/12/13 12:47:35;;;;;;;69.23;35.50;;;10.60;83.40;;;;;;10179038;29;20282;-94
2021/12/13 12:52:54;;;;;;;63.53;34.43;;;10.40;84.10;;;;;;10163462;29;20335;-96
2021/12/13 12:57:58;;;;;;;53.20;30.10;;;10.40;84.50;;;;;;10082544;29;20216;-95
2021/12/13 13:03:01;;;;;;;61.80;32.83;;;10.60;84.20;;;;;;10064205;29;20233;-95
2021/12/13 13:08:05;;;;;;;82.03;40.23;;;10.50;83.90;;;;;;10093671;29;20240;-93
2021/12/13 13:13:11;;;;;;;96.13;47.00;;;10.30;84.40;;;;;;10080519;29;20206;-93
2021/12/13 13:18:17;;;;;;;104.07;53.23;;;10.10;85.20;;;;;;10063358;29;20213;-93
2021/12/13 13:23:26;;;;;;;67.00;35.37;;;9.60;86.40;;;;;;10077521;29;20362;-94
2021/12/13 13:28:44;;;;;;;103.40;47.20;;;9.90;87.30;;;;;;10169792;29;20228;-95
2021/12/13 13:33:53;;;;;;;62.23;33.87;;;9.90;86.00;;;;;;10169634;29;20200;-96
2021/12/13 13:39:11;;;;;;;80.33;37.60;;;9.80;87.30;;;;;;10159740;29;20559;-94
2021/12/13 13:44:52;;;;;;;80.37;40.37;;;9.80;87.20;;;;;;10123684;29;20214;-92
2021/12/13 13:49:58;;;;;;;67.50;34.50;;;9.80;87.20;;;;;;10120340;29;20767;-91
2021/12/13 13:55:19;;;;;;;58.03;31.83;;;9.70;87.40;;;;;;10146375;29;20230;-94
2021/12/13 14:00:24;;;;;;;64.03;33.43;;;9.70;87.60;;;;;;10150707;29;20209;-95
2021/12/13 14:05:27;;;;;;;59.00;30.80;;;9.70;87.40;;;;;;10160198;29;20267;-94
2021/12/13 14:10:32;;;;;;;68.73;35.40;;;9.90;87.40;;;;;;10146744;29;20767;-93
2021/12/13 14:15:39;;;;;;;63.00;33.63;;;9.80;87.50;;;;;;10158484;29;20210;-94
2021/12/13 14:20:49;;;;;;;66.53;34.33;;;9.60;87.90;;;;;;10150353;29;20218;-95
2021/12/13 14:25:51;;;;;;;106.07;47.73;;;9.80;88.00;;;;;;10179729;29;20212;-95
2021/12/13 14:30:54;;;;;;;71.57;37.90;;;9.70;87.10;;;;;;10148886;29;20308;-94
2021/12/13 14:36:07;;;;;;;55.20;32.50;;;9.70;88.50;;;;;;10172779;29;20270;-94
2021/12/13 14:41:13;;;;;;;63.43;33.83;;;9.70;89.20;;;;;;10144798;29;20209;-94
2021/12/13 14:46:24;;;;;;;58.60;33.30;;;9.70;88.20;;;;;;10168750;29;20214;-96
2021/12/13 14:51:44;;;;;;;55.67;32.67;;;9.70;88.40;;;;;;10161608;29;20238;-95
2021/12/13 14:57:28;;;;;;;53.37;30.20;;;9.80;88.10;;;;;;10164586;29;20208;-96
2021/12/13 15:09:45;;;;;;;60.87;32.70;;;9.90;87.70;;;;;;10044191;29;20692;-96
2021/12/13 15:15:40;;;;;;;108.87;52.20;;;10.00;87.30;;;;;;10007196;29;20208;-96
2021/12/13 15:20:54;;;;;;;112.47;52.67;;;9.80;85.40;;;;;;10000002;29;20214;-96
2021/12/13 15:26:39;;;;;;;97.87;45.53;;;8.90;89.60;;;;;;10023909;29;20280;-94
2021/12/13 15:31:42;;;;;;;59.30;33.07;;;8.50;91.40;;;;;;9809072;30;20237;-92
2021/12/13 15:36:45;;;;;;;61.70;32.03;;;9.20;90.80;;;;;;9812935;30;20241;-93
2021/12/13 15:41:50;;;;;;;58.03;32.90;;;9.60;90.00;;;;;;9811953;30;20218;-93
2021/12/13 15:47:17;;;;;;;57.50;31.33;;;10.20;87.60;;;;;;9827684;30;20646;-94
2021/12/13 15:52:34;;;;;;;57.40;31.97;;;10.60;86.40;;;;;;9997803;29;20225;-94
2021/12/13 16:03:49;;;;;;;59.47;32.80;;;11.20;82.90;;;;;;9842420;30;20257;-93
2021/12/13 16:09:09;;;;;;;58.77;32.27;;;11.30;82.30;;;;;;9966413;29;20579;-95
2021/12/13 16:14:41;;;;;;;82.93;42.60;;;11.30;82.00;;;;;;10017555;29;20204;-96
2021/12/13 16:20:15;;;;;;;56.90;30.93;;;11.30;81.20;;;;;;9998426;29;20272;-96
2021/12/13 16:26:11;;;;;;;55.10;29.67;;;11.40;81.50;;;;;;9907575;30;20211;-94
2021/12/13 16:31:23;;;;;;;50.30;30.00;;;11.40;81.60;;;;;;9922249;29;20244;-95
2021/12/13 16:36:50;;;;;;;50.53;29.37;;;11.30;82.20;;;;;;9947266;29;20213;-96
2021/12/13 16:42:10;;;;;;;49.80;29.40;;;11.10;82.30;;;;;;10080938;29;20201;-92
2021/12/13 16:47:20;;;;;;;51.27;30.50;;;11.10;82.10;;;;;;10066207;29;20820;-95
2021/12/13 16:52:27;;;;;;;53.33;28.97;;;11.20;82.40;;;;;;10026432;29;20235;-94
2021/12/13 16:57:45;;;;;;;50.20;28.60;;;11.20;82.20;;;;;;10050192;29;20361;-95
2021/12/13 17:08:43;;;;;;;55.40;29.07;;;11.30;81.70;;;;;;10541657;27;1213911;-77
2021/12/13 17:13:56;;;;;;;54.97;30.23;;;11.20;82.10;;;;;;10550638;28;20226;-77
2021/12/13 17:19:10;;;;;;;67.07;36.30;;;11.20;82.00;;;;;;10550122;28;20222;-79
2021/12/13 17:24:27;;;;;;;50.03;28.50;;;11.00;81.30;;;;;;10564563;28;20260;-77
2021/12/13 17:29:45;;;;;;;74.73;39.07;;;11.20;81.80;;;;;;10549826;28;20224;-79
2021/12/13 17:34:53;;;;;;;51.90;29.90;;;11.40;81.60;;;;;;10560069;28;20261;-78
2021/12/13 17:40:08;;;;;;;74.37;38.00;;;11.20;81.60;;;;;;10537700;28;20293;-78
2021/12/13 17:45:36;;;;;;;65.93;32.67;;;11.00;81.30;;;;;;10567240;28;20679;-78
2021/12/13 17:51:03;;;;;;;89.83;44.47;;;10.50;83.50;;;;;;10522814;28;20289;-78
2021/12/13 17:56:08;;;;;;;56.20;31.90;;;10.40;83.40;;;;;;10543217;28;20292;-78
2021/12/13 18:01:14;;;;;;;62.97;34.90;;;10.30;85.10;;;;;;10544125;28;20224;-80
2021/12/13 18:06:51;;;;;;;55.50;32.07;;;10.50;84.60;;;;;;10527720;28;20262;-79
2021/12/13 18:12:21;;;;;;;72.40;36.63;;;10.50;84.70;;;;;;10523824;28;20239;-79
2021/12/13 18:17:44;;;;;;;55.27;31.67;;;10.30;84.90;;;;;;10531007;28;21021;-79
2021/12/13 18:23:14;;;;;;;60.40;34.20;;;10.20;85.70;;;;;;10518428;28;20351;-79
2021/12/13 18:28:33;;;;;;;68.10;36.67;;;10.30;85.20;;;;;;10537126;28;20813;-80
2021/12/13 18:33:49;;;;;;;79.03;40.03;;;10.00;85.80;;;;;;10503550;28;20617;-80
2021/12/13 18:39:06;;;;;;;52.80;30.93;;;10.40;84.60;;;;;;10529883;28;20233;-80
2021/12/13 18:44:15;;;;;;;52.83;30.23;;;10.30;85.50;;;;;;10474902;28;20720;-79
2021/12/13 18:49:41;;;;;;;57.60;31.43;;;10.40;85.60;;;;;;10506638;28;20205;-79
2021/12/13 18:55:07;;;;;;;59.77;31.47;;;11.10;82.80;;;;;;10532838;28;20231;-80
2021/12/13 19:00:57;;;;;;;59.60;32.70;;;11.10;82.40;;;;;;10500116;28;20322;-79
2021/12/13 19:06:08;;;;;;;59.77;32.17;;;11.40;81.20;;;;;;10496005;28;20256;-79
2021/12/13 19:11:26;;;;;;;61.17;34.50;;;11.40;81.50;;;;;;10520622;28;20282;-80
2021/12/13 19:16:48;;;;;;;55.80;32.73;;;11.30;81.50;;;;;;10505702;28;20227;-80
2021/12/13 19:21:58;;;;;;;58.30;30.90;;;11.40;81.30;;;;;;10508058;28;20275;-79
2021/12/13 19:27:20;;;;;;;59.93;32.50;;;11.30;81.60;;;;;;10504008;28;20253;-79
2021/12/13 19:32:38;;;;;;;102.30;48.57;;;11.00;82.00;;;;;;10531772;28;20635;-78
2021/12/13 19:37:48;;;;;;;62.77;34.83;;;10.50;83.30;;;;;;10517540;28;20233;-82
2021/12/13 19:42:58;;;;;;;63.53;33.87;;;10.50;84.50;;;;;;10502886;28;20645;-79
2021/12/13 19:48:16;;;;;;;71.50;37.40;;;10.50;84.20;;;;;;10535249;28;20315;-79
2021/12/13 19:53:29;;;;;;;94.27;47.80;;;10.50;84.30;;;;;;10532017;28;20231;-79
2021/12/13 19:58:40;;;;;;;65.20;36.37;;;10.20;85.10;;;;;;10535574;28;20288;-79
2021/12/13 20:03:57;;;;;;;90.47;45.33;;;10.20;85.80;;;;;;10524639;28;20240;-79
2021/12/13 20:09:07;;;;;;;64.63;35.47;;;10.30;85.10;;;;;;10478921;28;20683;-79
2021/12/13 20:14:22;;;;;;;57.30;33.63;;;10.50;85.10;;;;;;10534838;28;20207;-79
2021/12/13 20:19:28;;;;;;;72.40;36.97;;;10.60;84.60;;;;;;10481219;28;20247;-79
2021/12/13 20:24:35;;;;;;;80.13;41.23;;;10.50;84.50;;;;;;10490200;28;20243;-79
2021/12/13 20:29:46;;;;;;;62.57;36.00;;;10.20;85.20;;;;;;10533011;28;20280;-80
2021/12/13 20:34:57;;;;;;;77.63;39.00;;;10.20;85.90;;;;;;10515090;28;20246;-79
2021/12/13 20:40:20;;;;;;;65.90;37.17;;;10.10;86.20;;;;;;10531702;28;20293;-79
2021/12/13 20:45:49;;;;;;;78.27;38.90;;;10.00;86.40;;;;;;10514710;28;20259;-79
2021/12/13 20:50:59;;;;;;;62.57;34.97;;;10.00;86.40;;;;;;10532118;28;20283;-79
2021/12/13 20:56:09;;;;;;;61.47;33.00;;;9.90;87.20;;;;;;10507181;28;20995;-79
2021/12/13 21:01:26;;;;;;;66.80;35.80;;;10.10;86.70;;;;;;10488633;28;20235;-79
2021/12/13 21:06:37;;;;;;;67.80;38.57;;;10.20;86.20;;;;;;10455307;28;20324;-79
2021/12/13 21:12:00;;;;;;;72.87;36.63;;;10.10;86.20;;;;;;10458967;28;20289;-79
2021/12/13 21:17:08;;;;;;;65.80;35.03;;;10.00;86.90;;;;;;10473521;28;20240;-80
2021/12/13 21:22:25;;;;;;;59.27;35.47;;;10.30;86.20;;;;;;10483709;28;20239;-80
2021/12/13 21:27:35;;;;;;;89.53;45.60;;;10.50;85.40;;;;;;10441644;28;20323;-80
2021/12/13 21:32:40;;;;;;;58.83;33.37;;;10.50;84.10;;;;;;10460202;28;20230;-79
2021/12/13 21:43:10;;;;;;;124.93;58.03;;;10.90;83.80;;;;;;10485365;28;20648;-79
2021/12/13 21:48:37;;;;;;;89.07;42.97;;;10.80;81.50;;;;;;10473827;28;20256;-79
2021/12/13 21:53:53;;;;;;;74.77;38.83;;;10.50;83.60;;;;;;10467884;28;20621;-80
2021/12/13 21:59:00;;;;;;;63.93;37.17;;;9.90;86.20;;;;;;10440354;28;20212;-78
2021/12/13 22:04:14;;;;;;;59.17;33.53;;;9.50;99.90;;;;;;10463455;28;20228;-81
2021/12/13 22:09:33;;;;;;;66.13;34.80;;;10.60;94.40;;;;;;10462580;28;20255;-83
2021/12/13 22:14:51;;;;;;;58.60;32.63;;;10.80;92.20;;;;;;10490665;28;21295;-79
2021/12/13 22:19:59;;;;;;;63.53;34.27;;;10.90;91.30;;;;;;10500807;28;20682;-79
2021/12/13 22:25:10;;;;;;;64.90;33.53;;;11.10;90.80;;;;;;10476459;28;20260;-79
2021/12/13 22:30:23;;;;;;;79.07;40.60;;;11.10;90.20;;;;;;10488324;28;20228;-81
2021/12/13 22:35:30;;;;;;;60.57;32.63;;;10.90;89.70;;;;;;10491230;28;20276;-79
2021/12/13 22:40:39;;;;;;;56.70;31.90;;;11.10;90.00;;;;;;10470911;28;20752;-79
2021/12/13 22:45:43;;;;;;;58.60;33.33;;;11.10;89.60;;;;;;10463528;28;20252;-78
2021/12/13 22:50:49;;;;;;;75.40;38.53;;;11.20;88.60;;;;;;10441579;28;20204;-79
2021/12/13 22:55:59;;;;;;;72.03;36.17;;;11.10;87.80;;;;;;10498001;28;20237;-79
2021/12/13 23:01:09;;;;;;;58.37;31.60;;;11.00;87.70;;;;;;10498403;28;20227;-79
2021/12/13 23:06:18;;;;;;;57.10;32.07;;;11.00;88.40;;;;;;10478168;28;20226;-80
2021/12/13 23:16:39;;;;;;;56.87;31.50;;;11.30;86.60;;;;;;10496246;28;20602;-81
2021/12/13 23:21:45;;;;;;;53.63;30.80;;;11.30;86.30;;;;;;10517419;28;20239;-80
2021/12/13 23:26:56;;;;;;;50.90;30.13;;;11.30;86.30;;;;;;10516125;28;20295;-79
2021/12/13 23:32:03;;;;;;;70.23;36.70;;;11.20;86.80;;;;;;10507877;28;20229;-79
2021/12/13 23:37:10;;;;;;;60.83;33.50;;;11.20;86.10;;;;;;10479593;28;20241;-79
2021/12/13 23:45:33;;;;;;;60.73;31.13;;;11.10;86.40;;;;;;10514666;28;20248;-79
2021/12/13 23:47:42;;;;;;;63.43;33.13;;;11.00;87.10;;;;;;10487614;28;20253;-79
2021/12/13 23:52:51;;;;;;;54.37;30.73;;;11.00;86.50;;;;;;10511466;28;20270;-79
2021/12/13 23:58:02;;;;;;;55.13;30.50;;;11.10;86.60;;;;;;10516010;28;20671;-78
